createdAt,value
2023-05-10T00:02:09.333Z,4.53
2023-05-10T00:05:32.069Z,5.35
2023-05-10T00:08:54.724Z,4.75
2023-05-10T00:12:18.693Z,5.32
2023-05-10T00:15:41.362Z,4.47
2023-05-10T00:19:04.217Z,4.70
2023-05-10T00:22:26.685Z,4.80
2023-05-10T00:25:49.330Z,5.30
2023-05-10T00:29:13.206Z,4.47
2023-05-10T00:32:36.042Z,4.32
2023-05-10T00:35:59.129Z,4.85
2023-05-10T00:39:21.778Z,5.00
2023-05-10T00:42:44.236Z,4.85
2023-05-10T00:46:09.472Z,4.38
2023-05-10T00:49:32.605Z,4.72
2023-05-10T00:52:55.767Z,4.78
2023-05-10T00:56:19.133Z,4.15
2023-05-10T00:59:42.301Z,4.63
2023-05-10T01:03:06.872Z,4.90
2023-05-10T01:06:29.874Z,4.30
2023-05-10T01:09:52.825Z,4.32
2023-05-10T01:13:16.123Z,4.40
2023-05-10T01:16:41.303Z,4.80
2023-05-10T01:20:05.496Z,3.92
2023-05-10T01:24:11.487Z,4.85
2023-05-10T01:28:08.420Z,5.38
2023-05-10T01:32:11.629Z,5.00
2023-05-10T01:35:40.838Z,5.22
2023-05-10T01:39:14.227Z,6.68
2023-05-10T01:42:43.616Z,5.43
2023-05-10T01:49:41.748Z,5.25
2023-05-10T01:56:30.948Z,4.63
2023-05-10T01:59:55.236Z,3.45
2023-05-10T02:03:21.495Z,4.10
2023-05-10T02:06:47.806Z,4.50
2023-05-10T02:10:12.778Z,4.78
2023-05-10T02:13:40.794Z,3.97
2023-05-10T02:17:07.137Z,4.50
2023-05-10T02:20:30.207Z,3.58
2023-05-10T02:23:56.227Z,3.83
2023-05-10T02:27:22.364Z,4.10
2023-05-10T02:30:45.939Z,3.47
2023-05-10T02:34:10.697Z,3.80
2023-05-10T02:37:34.927Z,4.00
2023-05-10T02:40:59.934Z,3.20
2023-05-10T02:44:23.508Z,3.40
2023-05-10T02:47:46.212Z,4.10
2023-05-10T02:51:11.178Z,3.45
2023-05-10T02:54:41.101Z,3.75
2023-05-10T02:58:06.321Z,3.22
2023-05-10T03:01:29.003Z,3.30
2023-05-10T03:04:51.833Z,3.67
2023-05-10T03:08:14.879Z,3.28
2023-05-10T03:11:56.385Z,2.60
2023-05-10T03:15:28.146Z,2.83
2023-05-10T03:18:57.649Z,3.67
2023-05-10T03:22:27.796Z,4.03
2023-05-10T03:25:52.451Z,4.15
2023-05-10T03:29:16.856Z,3.80
2023-05-10T03:32:40.991Z,4.25
2023-05-10T03:36:03.827Z,3.55
2023-05-10T03:39:26.475Z,4.53
2023-05-10T03:42:48.931Z,4.03
2023-05-10T03:46:11.809Z,3.83
2023-05-10T03:49:35.768Z,4.40
2023-05-10T03:52:58.733Z,4.57
2023-05-10T03:56:22.094Z,5.00
2023-05-10T03:59:48.244Z,4.60
2023-05-10T04:03:11.002Z,4.93
2023-05-10T04:06:38.194Z,3.88
2023-05-10T04:10:01.051Z,5.68
2023-05-10T04:13:24.315Z,4.97
2023-05-10T04:16:47.380Z,5.00
2023-05-10T04:20:11.417Z,5.35
2023-05-10T04:23:35.408Z,7.22
2023-05-10T04:26:58.453Z,4.18
2023-05-10T04:30:21.885Z,5.35
2023-05-10T04:33:44.793Z,5.03
2023-05-10T04:37:08.772Z,4.32
2023-05-10T04:40:32.882Z,5.47
2023-05-10T04:43:55.409Z,7.07
2023-05-10T04:47:18.683Z,5.70
2023-05-10T04:50:42.469Z,6.82
2023-05-10T04:54:06.832Z,5.78
2023-05-10T04:57:31.052Z,6.85
2023-05-10T05:00:53.686Z,5.68
2023-05-10T05:04:16.343Z,6.38
2023-05-10T05:07:39.821Z,5.20
2023-05-10T05:11:02.173Z,4.20
2023-05-10T05:14:26.659Z,3.55
2023-05-10T05:17:49.667Z,3.38
2023-05-10T05:21:19.059Z,2.40
2023-05-10T05:24:42.196Z,2.38
2023-05-10T05:28:04.850Z,1.55
2023-05-10T05:31:31.489Z,2.20
2023-05-10T05:34:54.560Z,2.75
2023-05-10T05:38:17.006Z,2.28
2023-05-10T05:41:39.453Z,2.58
2023-05-10T05:45:02.226Z,2.15
2023-05-10T05:48:26.600Z,2.40
2023-05-10T05:51:50.795Z,2.20
2023-05-10T05:55:14.249Z,2.80
2023-05-10T05:58:36.814Z,2.72
2023-05-10T06:02:00.166Z,1.98
2023-05-10T06:05:24.266Z,2.13
2023-05-10T06:08:47.335Z,1.80
2023-05-10T06:12:10.198Z,2.17
2023-05-10T06:15:34.090Z,2.33
2023-05-10T06:18:57.443Z,2.05
2023-05-10T06:22:21.533Z,2.45
2023-05-10T06:25:44.385Z,2.55
2023-05-10T06:29:07.551Z,2.20
2023-05-10T06:32:30.643Z,1.98
2023-05-10T06:35:53.878Z,2.17
2023-05-10T06:39:17.972Z,1.98
2023-05-10T06:42:41.246Z,2.67
2023-05-10T06:46:04.107Z,2.08
2023-05-10T06:49:27.277Z,2.50
2023-05-10T06:52:51.163Z,2.13
2023-05-10T06:56:17.685Z,1.73
2023-05-10T06:59:40.577Z,2.38
2023-05-10T07:03:03.823Z,2.95
2023-05-10T07:06:33.365Z,2.83
2023-05-10T07:09:57.919Z,2.30
2023-05-10T07:13:22.128Z,1.75
2023-05-10T07:16:45.785Z,1.63
2023-05-10T07:20:09.871Z,7.93
2023-05-10T07:23:35.190Z,1.90
2023-05-10T07:26:57.837Z,14.63
2023-05-10T07:30:22.766Z,2.03
2023-05-10T07:33:45.703Z,1.77
2023-05-10T07:37:11.245Z,2.10
2023-05-10T07:40:34.082Z,2.28
2023-05-10T07:43:56.937Z,2.70
2023-05-10T07:47:20.879Z,2.58
2023-05-10T07:50:43.676Z,2.20
2023-05-10T07:54:06.539Z,1.60
2023-05-10T07:57:29.590Z,2.05
2023-05-10T08:00:52.245Z,2.42
2023-05-10T08:04:16.235Z,2.15
2023-05-10T08:07:40.437Z,1.98
2023-05-10T08:11:03.080Z,2.00
2023-05-10T08:14:29.510Z,3.20
2023-05-10T08:17:52.646Z,2.33
2023-05-10T08:21:16.752Z,1.90
2023-05-10T08:24:40.643Z,2.47
2023-05-10T08:28:02.991Z,1.70
2023-05-10T08:31:25.555Z,2.08
2023-05-10T08:34:48.093Z,2.13
2023-05-10T08:38:12.584Z,1.60
2023-05-10T08:41:38.526Z,1.92
2023-05-10T08:45:02.735Z,1.98
2023-05-10T08:48:31.732Z,2.20
2023-05-10T08:51:58.151Z,2.20
2023-05-10T08:55:22.240Z,2.25
2023-05-10T08:58:45.193Z,2.20
2023-05-10T09:02:09.080Z,3.20
2023-05-10T09:05:31.903Z,2.53
2023-05-10T09:08:55.624Z,1.80
2023-05-10T09:12:19.717Z,2.45
2023-05-10T09:15:42.050Z,2.25
2023-05-10T09:19:04.670Z,1.85
2023-05-10T09:22:27.764Z,3.20
2023-05-10T09:25:50.519Z,2.55
2023-05-10T09:29:17.241Z,2.85
2023-05-10T09:32:41.394Z,1.70
2023-05-10T09:36:09.945Z,2.65
2023-05-10T09:39:36.743Z,3.23
2023-05-10T09:43:01.184Z,2.47
2023-05-10T09:46:27.654Z,1.80
2023-05-10T09:49:52.948Z,2.63
2023-05-10T09:53:18.561Z,2.90
2023-05-10T09:56:41.943Z,2.05
2023-05-10T10:00:06.445Z,3.63
2023-05-10T10:03:31.746Z,2.67
2023-05-10T10:07:14.680Z,2.22
2023-05-10T10:10:37.399Z,1.50
2023-05-10T10:14:00.951Z,1.90
2023-05-10T10:17:24.308Z,2.22
2023-05-10T10:20:49.076Z,2.38
2023-05-10T10:24:11.636Z,1.98
2023-05-10T10:27:43.884Z,2.33
2023-05-10T10:31:20.911Z,1.80
2023-05-10T10:34:43.762Z,1.90
2023-05-10T10:38:11.112Z,2.05
2023-05-10T10:41:35.722Z,1.58
2023-05-10T10:45:15.638Z,1.95
2023-05-10T10:48:38.936Z,2.22
2023-05-10T10:52:29.954Z,2.35
2023-05-10T10:56:09.304Z,2.33
2023-05-10T10:59:31.920Z,3.13
2023-05-10T11:02:56.582Z,1.80
2023-05-10T11:06:32.925Z,2.13
2023-05-10T11:09:56.906Z,1.90
2023-05-10T11:13:30.929Z,2.40
2023-05-10T11:16:53.888Z,1.45
2023-05-10T11:20:20.628Z,2.03
2023-05-10T11:23:57.554Z,2.20
2023-05-10T11:27:21.420Z,2.30
2023-05-10T11:30:47.572Z,2.63
2023-05-10T11:34:10.291Z,2.40
2023-05-10T11:37:35.606Z,2.08
2023-05-10T11:40:59.402Z,2.50
2023-05-10T11:44:22.708Z,1.90
2023-05-10T11:47:46.802Z,2.60
2023-05-10T11:51:10.631Z,2.88
2023-05-10T11:54:36.276Z,2.28
2023-05-10T11:58:03.731Z,2.13
2023-05-10T12:01:28.091Z,2.30
2023-05-10T12:04:53.150Z,2.05
2023-05-10T12:08:17.511Z,2.35
2023-05-10T12:11:44.190Z,1.92
2023-05-10T12:15:08.958Z,2.17
2023-05-10T12:18:32.454Z,1.67
2023-05-10T12:21:56.309Z,2.42
2023-05-10T12:25:19.368Z,2.03
2023-05-10T12:28:42.137Z,2.30
2023-05-10T12:32:05.421Z,1.83
2023-05-10T12:35:28.147Z,1.95
2023-05-10T12:38:54.188Z,2.40
2023-05-10T12:42:16.534Z,2.30
2023-05-10T12:45:39.098Z,2.55
2023-05-10T12:49:08.882Z,3.00
2023-05-10T12:52:34.116Z,1.98
2023-05-10T13:00:45.807Z,2.47
2023-05-10T13:04:08.939Z,2.45
2023-05-10T13:07:32.168Z,2.08
2023-05-10T13:10:55.639Z,1.75
2023-05-10T13:14:21.707Z,2.28
2023-05-10T13:17:51.532Z,2.92
2023-05-10T13:21:15.280Z,2.20
2023-05-10T13:24:41.420Z,2.10
2023-05-10T13:28:04.981Z,1.85
2023-05-10T13:31:29.508Z,2.20
2023-05-10T13:34:55.314Z,2.30
2023-05-10T13:38:22.288Z,2.50
2023-05-10T13:41:46.356Z,2.40
2023-05-10T13:45:10.128Z,1.50
2023-05-10T13:48:33.102Z,3.30
2023-05-10T13:51:57.910Z,1.95
2023-05-10T13:55:24.456Z,2.22
2023-05-10T13:58:47.922Z,2.13
2023-05-10T14:02:10.421Z,2.17
2023-05-10T14:05:33.230Z,2.15
2023-05-10T14:08:58.846Z,2.38
2023-05-10T14:12:21.691Z,2.00
2023-05-10T14:15:45.476Z,2.00
2023-05-10T14:19:08.862Z,2.00
2023-05-10T14:22:31.992Z,10.23
2023-05-10T14:25:56.587Z,3.90
2023-05-10T14:29:19.985Z,1.95
2023-05-10T14:32:44.286Z,1.98
2023-05-10T14:36:08.354Z,2.10
2023-05-10T14:39:32.751Z,1.85
2023-05-10T14:42:57.852Z,3.75
2023-05-10T14:46:21.475Z,2.30
2023-05-10T14:49:45.620Z,2.00
2023-05-10T14:53:09.293Z,1.70
2023-05-10T14:56:32.258Z,2.78
2023-05-10T14:59:57.458Z,2.35
2023-05-10T15:03:21.252Z,2.13
2023-05-10T15:06:46.766Z,1.75
2023-05-10T15:10:12.310Z,2.50
2023-05-10T15:13:34.932Z,2.08
2023-05-10T15:17:00.862Z,2.50
2023-05-10T15:20:24.572Z,2.15
2023-05-10T15:23:47.809Z,1.80
2023-05-10T15:27:11.897Z,1.95
2023-05-10T15:30:35.679Z,1.90
2023-05-10T15:34:02.250Z,1.90
2023-05-10T15:37:25.895Z,1.98
2023-05-10T15:40:49.473Z,2.85
2023-05-10T15:44:15.406Z,2.53
2023-05-10T15:47:40.630Z,2.45
2023-05-10T15:51:06.587Z,2.50
2023-05-10T15:54:31.449Z,3.78
2023-05-10T15:57:54.515Z,3.42
2023-05-10T16:01:18.137Z,2.95
2023-05-10T16:04:41.662Z,6.22
2023-05-10T16:08:07.602Z,4.45
2023-05-10T16:11:33.853Z,3.22
2023-05-10T16:15:05.803Z,6.10
2023-05-10T16:18:30.944Z,3.10
2023-05-10T16:21:55.127Z,2.55
2023-05-10T16:25:21.340Z,2.40
2023-05-10T16:28:46.960Z,3.70
2023-05-10T16:32:12.786Z,4.88
2023-05-10T16:35:37.087Z,6.70
2023-05-10T16:39:08.077Z,2.55
2023-05-10T16:42:37.139Z,2.95
2023-05-10T16:46:03.115Z,3.00
2023-05-10T16:49:27.348Z,2.53
2023-05-10T16:52:51.170Z,2.40
2023-05-10T16:56:14.697Z,2.30
2023-05-10T16:59:43.502Z,2.60
2023-05-10T17:03:07.474Z,2.40
2023-05-10T17:06:36.077Z,2.05
2023-05-10T17:10:00.889Z,2.70
2023-05-10T17:13:24.252Z,2.20
2023-05-10T17:16:50.520Z,2.30
2023-05-10T17:20:17.444Z,2.25
2023-05-10T17:23:42.051Z,2.58
2023-05-10T17:27:08.478Z,2.25
2023-05-10T17:30:34.881Z,2.75
2023-05-10T17:34:05.666Z,2.47
2023-05-10T17:37:29.869Z,2.38
2023-05-10T17:40:56.099Z,2.28
2023-05-10T17:44:23.515Z,2.92
2023-05-10T17:47:49.769Z,2.67
2023-05-10T17:51:16.442Z,2.90
2023-05-10T17:55:02.233Z,2.90
2023-05-10T17:58:27.553Z,2.42
2023-05-10T18:02:15.082Z,2.10
2023-05-10T18:05:41.046Z,1.80
2023-05-10T18:09:25.984Z,5.25
2023-05-10T18:12:51.205Z,4.47
2023-05-10T18:16:16.468Z,3.75
2023-05-10T18:19:40.809Z,3.33
2023-05-10T18:23:05.123Z,3.05
2023-05-10T18:26:29.898Z,2.50
2023-05-10T18:29:54.605Z,2.25
2023-05-10T18:33:18.455Z,1.90
2023-05-10T18:36:45.234Z,1.90
2023-05-10T18:40:15.570Z,1.92
2023-05-10T18:43:47.321Z,3.05
2023-05-10T18:47:23.549Z,2.17
2023-05-10T18:50:48.718Z,2.00
2023-05-10T18:54:18.843Z,2.40
2023-05-10T18:57:43.857Z,2.15
2023-05-10T19:01:09.214Z,2.20
2023-05-10T19:04:36.488Z,2.22
2023-05-10T19:08:05.431Z,2.30
2023-05-10T19:11:33.506Z,2.92
2023-05-10T19:14:56.878Z,3.85
2023-05-10T19:18:24.683Z,3.78
2023-05-10T19:21:50.965Z,3.30
2023-05-10T19:25:20.092Z,3.88
2023-05-10T19:28:48.072Z,3.33
2023-05-10T19:32:11.806Z,3.92
2023-05-10T19:35:35.493Z,9.40
2023-05-10T19:38:57.784Z,8.50
2023-05-10T19:42:20.693Z,8.05
2023-05-10T19:45:43.598Z,6.40
2023-05-10T19:49:05.735Z,5.43
2023-05-10T19:52:29.687Z,6.10
2023-05-10T19:55:51.749Z,6.05
2023-05-10T19:59:13.635Z,6.95
2023-05-10T20:02:35.401Z,6.47
2023-05-10T20:05:57.456Z,7.00
2023-05-10T20:09:21.035Z,8.02
2023-05-10T20:12:42.939Z,8.82
2023-05-10T20:16:06.240Z,7.47
2023-05-10T20:19:28.170Z,6.88
2023-05-10T20:22:50.777Z,5.63
2023-05-10T20:26:14.792Z,5.90
2023-05-10T20:29:36.870Z,4.68
2023-05-10T20:32:58.874Z,4.63
2023-05-10T20:36:20.791Z,4.70
2023-05-10T20:39:43.034Z,3.33
2023-05-10T20:43:06.645Z,3.47
2023-05-10T20:46:29.097Z,2.92
2023-05-10T20:49:51.428Z,2.75
2023-05-10T20:53:14.653Z,2.60
2023-05-10T20:56:36.406Z,2.35
2023-05-10T20:59:59.735Z,3.17
2023-05-10T21:03:21.694Z,2.17
2023-05-10T21:06:44.691Z,2.50
2023-05-10T21:10:07.685Z,2.28
2023-05-10T21:13:29.512Z,2.70
2023-05-10T21:16:52.727Z,2.22
2023-05-10T21:20:15.423Z,2.53
2023-05-10T21:23:37.517Z,2.35
2023-05-10T21:26:59.275Z,1.85
2023-05-10T21:30:21.140Z,1.90
2023-05-10T21:33:44.267Z,1.52
2023-05-10T21:37:06.155Z,1.92
2023-05-10T21:40:27.942Z,1.67
2023-05-10T21:43:49.640Z,2.00
2023-05-10T21:47:13.853Z,2.58
2023-05-10T21:50:37.045Z,1.90
2023-05-10T21:53:59.008Z,2.10
2023-05-10T21:57:21.669Z,1.92
2023-05-10T22:00:44.071Z,1.95
2023-05-10T22:04:05.817Z,1.73
2023-05-10T22:07:31.585Z,1.70
2023-05-10T22:10:53.388Z,1.90
2023-05-10T22:14:15.259Z,2.80
2023-05-10T22:17:39.323Z,1.67
2023-05-10T22:21:01.514Z,2.03
2023-05-10T22:24:24.791Z,1.40
2023-05-10T22:27:46.607Z,2.10
2023-05-10T22:31:11.585Z,7.00
2023-05-10T22:34:36.320Z,2.08
2023-05-10T22:37:58.258Z,2.17
2023-05-10T22:41:22.669Z,1.90
2023-05-10T22:44:44.789Z,1.50
2023-05-10T22:48:06.907Z,2.05
2023-05-10T22:51:29.295Z,1.75
2023-05-10T22:54:51.078Z,1.65
2023-05-10T22:58:14.425Z,1.52
2023-05-10T23:01:39.311Z,1.77
2023-05-10T23:05:05.474Z,2.25
2023-05-10T23:08:27.750Z,1.92
2023-05-10T23:11:49.610Z,1.50
2023-05-10T23:15:13.149Z,1.65
2023-05-10T23:18:35.302Z,2.42
2023-05-10T23:21:57.083Z,1.73
2023-05-10T23:25:19.315Z,1.45
2023-05-10T23:28:41.220Z,2.00
2023-05-10T23:32:04.764Z,2.03
2023-05-10T23:35:26.804Z,1.70
2023-05-10T23:38:48.505Z,1.67
2023-05-10T23:42:10.637Z,1.90
2023-05-10T23:45:35.369Z,1.70
2023-05-10T23:48:58.770Z,1.40
2023-05-10T23:52:22.891Z,2.25
2023-05-10T23:55:44.932Z,4.03
2023-05-10T23:59:10.114Z,2.30
